Time;durP1;ratioP1;P1;durP2;ratioP2;P2;SDS_P1;SDS_P2;PMS_P1;PMS_P2;Temp;Humidity;BMP_temperature;BMP_pressure;BME280_temperature;BME280_humidity;BME280_pressure;Samples;Min_cycle;Max_cycle;Signal;HPM_P1;HPM_P2
2021/03/11 00:00:36;;;;;;;16.35;8.50;;;;;;;-139.48;100.00;61774.03;5014983;28;20123;-67
2021/03/11 00:03:24;;;;;;;13.35;8.48;;;;;;;-139.48;100.00;61774.03;5013679;28;20426;-66
2021/03/11 00:06:09;;;;;;;14.30;8.55;;;;;;;-139.48;100.00;61774.03;5014474;28;20049;-67
2021/03/11 00:08:53;;;;;;;14.88;8.70;;;;;;;-139.48;100.00;61774.03;5000040;28;20056;-68
2021/03/11 00:11:37;;;;;;;14.80;8.25;;;;;;;-139.48;100.00;61774.03;4999965;28;20057;-68
2021/03/11 00:14:22;;;;;;;13.00;8.35;;;;;;;-139.48;100.00;61774.03;5013457;28;20180;-68
2021/03/11 00:17:06;;;;;;;15.25;6.53;;;;;;;-139.48;100.00;61774.03;4999311;28;20053;-68
2021/03/11 00:19:50;;;;;;;12.57;7.68;;;;;;;-139.48;100.00;61774.03;5013650;28;20407;-68
2021/03/11 00:22:35;;;;;;;10.43;5.57;;;;;;;-139.48;100.00;61774.03;5014635;28;20116;-68
2021/03/11 00:25:22;;;;;;;11.57;6.32;;;;;;;-139.48;100.00;61774.03;4999655;28;20144;-68
2021/03/11 00:28:06;;;;;;;10.02;6.07;;;;;;;-139.48;100.00;61774.03;5014117;28;20103;-68
2021/03/11 00:30:51;;;;;;;10.55;6.00;;;;;;;-139.48;100.00;61774.03;4999320;28;20557;-68
2021/03/11 00:33:35;;;;;;;13.00;6.15;;;;;;;-139.48;100.00;61774.03;4998913;28;20076;-68
2021/03/11 00:36:19;;;;;;;10.25;6.47;;;;;;;-139.48;100.00;61774.03;5014126;28;20044;-68
2021/03/11 00:39:05;;;;;;;9.55;5.70;;;;;;;-139.48;100.00;61774.03;4999510;28;20052;-67
2021/03/11 00:41:49;;;;;;;11.30;6.60;;;;;;;-139.48;100.00;61774.03;5014259;28;20107;-68
2021/03/11 00:44:33;;;;;;;10.30;5.80;;;;;;;-139.48;100.00;61774.03;5013909;28;20057;-68
2021/03/11 00:47:17;;;;;;;11.57;5.72;;;;;;;-139.48;100.00;61774.03;4999172;28;20049;-67
2021/03/11 00:50:04;;;;;;;8.88;5.10;;;;;;;-139.48;100.00;61774.03;5013003;28;20053;-67
2021/03/11 00:52:48;;;;;;;10.13;5.00;;;;;;;-139.48;100.00;61774.03;4999077;28;20052;-67
2021/03/11 00:55:32;;;;;;;7.68;5.07;;;;;;;-139.48;100.00;61774.03;4999215;28;20103;-67
2021/03/11 00:58:16;;;;;;;9.82;5.28;;;;;;;-139.48;100.00;61774.03;5013687;28;20059;-66
2021/03/11 01:01:00;;;;;;;10.23;5.50;;;;;;;-139.48;100.00;61774.03;5012695;28;20056;-67
2021/03/11 01:03:44;;;;;;;;;;;;;;;-139.48;100.00;61774.03;4999480;28;20049;-67
2021/03/11 01:06:29;;;;;;;8.77;5.47;;;;;;;-139.48;100.00;61774.03;4998734;28;20012;-67
2021/03/11 01:09:12;;;;;;;7.00;4.97;;;;;;;-139.48;100.00;61774.03;5013583;28;20061;-68
2021/03/11 01:11:56;;;;;;;9.43;5.50;;;;;;;-139.48;100.00;61774.03;4999114;28;20052;-67
2021/03/11 01:14:43;;;;;;;8.63;5.22;;;;;;;-139.48;100.00;61774.03;4998878;28;20053;-68
2021/03/11 01:17:27;;;;;;;9.93;5.68;;;;;;;-139.48;100.00;61774.03;4998563;28;20049;-68
2021/03/11 01:20:15;;;;;;;9.93;5.55;;;;;;;-139.48;100.00;61774.03;4998923;28;20080;-68
2021/03/11 01:23:00;;;;;;;8.80;4.47;;;;;;;-139.48;100.00;61774.03;5012647;28;20091;-68
2021/03/11 01:25:44;;;;;;;8.32;4.55;;;;;;;-139.48;100.00;61774.03;5013262;28;20526;-67
2021/03/11 01:28:28;;;;;;;12.52;5.07;;;;;;;-139.48;100.00;61774.03;4998691;28;20151;-68
2021/03/11 01:31:12;;;;;;;9.73;5.43;;;;;;;-139.48;100.00;61774.03;5013271;28;20053;-68
2021/03/11 01:33:56;;;;;;;9.68;5.07;;;;;;;-139.48;100.00;61774.03;5013547;28;20058;-65
2021/03/11 01:36:40;;;;;;;10.88;5.13;;;;;;;-139.48;100.00;61774.03;5013398;28;20048;-68
2021/03/11 01:39:25;;;;;;;8.80;5.07;;;;;;;-139.48;100.00;61774.03;5013272;28;20069;-68
2021/03/11 01:42:09;;;;;;;7.55;5.20;;;;;;;-139.48;100.00;61774.03;5013419;28;20056;-68
2021/03/11 01:44:54;;;;;;;9.00;4.97;;;;;;;-139.48;100.00;61774.03;4998509;28;20056;-67
2021/03/11 01:47:38;;;;;;;10.95;5.45;;;;;;;-139.48;100.00;61774.03;5002182;28;20522;-67
2021/03/11 01:50:22;;;;;;;9.02;3.78;;;;;;;-139.48;100.00;61774.03;5017169;28;20421;-68
2021/03/11 01:53:07;;;;;;;7.82;4.38;;;;;;;-139.48;100.00;61774.03;5002433;28;20053;-67
2021/03/11 01:55:51;;;;;;;7.47;4.65;;;;;;;-139.48;100.00;61774.03;5016317;28;20494;-68
2021/03/11 01:58:35;;;;;;;10.82;4.90;;;;;;;-139.48;100.00;61774.03;5017328;28;20099;-68
2021/03/11 02:01:19;;;;;;;8.80;5.55;;;;;;;-139.48;100.00;61774.03;5002106;28;20064;-68
2021/03/11 02:04:03;;;;;;;6.90;4.47;;;;;;;-139.48;100.00;61774.03;5002268;28;20191;-67
2021/03/11 02:06:47;;;;;;;11.07;5.10;;;;;;;-139.48;100.00;61774.03;5016923;28;20049;-67
2021/03/11 02:09:32;;;;;;;7.35;4.80;;;;;;;-139.48;100.00;61774.03;5002257;28;20052;-68
2021/03/11 02:12:31;;;;;;;8.38;4.30;;;;;;;-139.48;100.00;61774.03;5016814;28;20095;-68
2021/03/11 02:15:25;;;;;;;9.80;4.90;;;;;;;-139.48;100.00;61774.03;5015934;28;20108;-68
2021/03/11 02:18:17;;;;;;;7.88;4.20;;;;;;;-139.48;100.00;61774.03;5001650;28;20629;-68
2021/03/11 02:21:43;;;;;;;9.93;5.43;;;;;;;-139.48;100.00;61774.03;5016991;28;20049;-68
2021/03/11 02:24:28;;;;;;;;;;;;;;;-139.48;100.00;61774.03;4956722;29;20094;-68
2021/03/11 02:27:12;;;;;;;10.07;6.22;;;;;;;-139.48;100.00;61774.03;4955927;29;20459;-67
2021/03/11 02:29:56;;;;;;;10.07;5.90;;;;;;;-139.48;100.00;61774.03;5007167;28;20048;-68
2021/03/11 02:32:42;;;;;;;7.78;4.18;;;;;;;-139.48;100.00;61774.03;5016419;28;20056;-68
2021/03/11 02:35:27;;;;;;;9.10;4.57;;;;;;;-139.48;100.00;61774.03;5015431;28;20044;-68
2021/03/11 02:38:11;;;;;;;;;;;;;;;-139.48;100.00;61774.03;5016831;28;20574;-68
2021/03/11 02:40:58;;;;;;;11.57;6.05;;;;;;;-139.48;100.00;61774.03;5001403;28;19923;-68
2021/03/11 02:43:46;;;;;;;15.70;7.28;;;;;;;-139.48;100.00;61774.03;5015350;28;20068;-67
2021/03/11 02:46:30;;;;;;;12.30;6.97;;;;;;;-139.48;100.00;61774.03;5015211;28;20506;-67
2021/03/11 02:49:15;;;;;;;12.65;7.28;;;;;;;-139.48;100.00;61774.03;5001179;28;20052;-68
2021/03/11 02:52:00;;;;;;;18.45;8.63;;;;;;;-139.48;100.00;61774.03;5016303;28;20088;-68
2021/03/11 02:54:45;;;;;;;12.32;7.55;;;;;;;-139.48;100.00;61774.03;5001052;28;20418;-68
2021/03/11 02:57:30;;;;;;;12.20;7.30;;;;;;;-139.48;100.00;61774.03;5014024;28;20461;-68
2021/03/11 03:00:14;;;;;;;13.68;7.72;;;;;;;-139.48;100.00;61774.03;5015130;28;20104;-67
2021/03/11 03:02:58;;;;;;;;;;;;;;;-139.48;100.00;61774.03;5015255;28;20525;-67
2021/03/11 03:05:42;;;;;;;14.43;7.63;;;;;;;-139.48;100.00;61774.03;5001147;28;19919;-67
2021/03/11 03:08:27;;;;;;;13.07;7.90;;;;;;;-139.48;100.00;61774.03;5015941;28;20088;-68
2021/03/11 03:11:12;;;;;;;13.98;7.32;;;;;;;-139.48;100.00;61774.03;5015682;28;20068;-67
2021/03/11 03:13:57;;;;;;;9.65;5.75;;;;;;;-139.48;100.00;61774.03;5014951;28;20126;-67
2021/03/11 03:16:42;;;;;;;12.95;7.57;;;;;;;-139.48;100.00;61774.03;5017025;28;20461;-68
2021/03/11 03:19:26;;;;;;;15.07;8.00;;;;;;;-139.48;100.00;61774.03;5015375;28;20410;-67
2021/03/11 03:22:11;;;;;;;12.98;7.90;;;;;;;-139.48;100.00;61774.03;5014578;28;20052;-68
2021/03/11 03:24:55;;;;;;;14.13;7.50;;;;;;;-139.48;100.00;61774.03;5000815;28;20049;-68
2021/03/11 03:27:39;;;;;;;16.50;8.13;;;;;;;-139.48;100.00;61774.03;5015321;28;20105;-68
2021/03/11 03:30:23;;;;;;;13.30;8.50;;;;;;;-139.48;100.00;61774.03;5014639;28;20529;-67
2021/03/11 03:33:08;;;;;;;14.77;7.72;;;;;;;-139.48;100.00;61774.03;5000462;28;20045;-68
2021/03/11 03:35:52;;;;;;;15.75;8.40;;;;;;;-139.48;100.00;61774.03;5015483;28;20084;-67
2021/03/11 03:38:36;;;;;;;;;;;;;;;-139.48;100.00;61774.03;5001101;28;20123;-67
2021/03/11 03:41:22;;;;;;;14.32;8.23;;;;;;;-139.48;100.00;61774.03;5000367;28;19921;-67
2021/03/11 03:44:11;;;;;;;16.67;9.48;;;;;;;-139.48;100.00;61774.03;5014157;28;20513;-67
2021/03/11 03:46:56;;;;;;;14.70;8.50;;;;;;;-139.48;100.00;61774.03;4999939;28;20514;-68
2021/03/11 03:49:41;;;;;;;14.70;7.43;;;;;;;-139.48;100.00;61774.03;5014999;28;20061;-68
2021/03/11 03:52:26;;;;;;;13.65;7.93;;;;;;;-139.48;100.00;61774.03;5015111;28;20060;-68
2021/03/11 03:55:11;;;;;;;11.88;5.13;;;;;;;-139.48;100.00;61774.03;5014146;28;20052;-68
2021/03/11 03:57:57;;;;;;;13.05;6.15;;;;;;;-139.48;100.00;61774.03;5014783;28;20095;-67
2021/03/11 04:00:41;;;;;;;10.38;6.32;;;;;;;-139.48;100.00;61774.03;5014990;28;20143;-68
2021/03/11 04:03:26;;;;;;;10.02;6.68;;;;;;;-139.48;100.00;61774.03;5014896;28;20561;-67
2021/03/11 04:06:12;;;;;;;12.75;6.50;;;;;;;-139.48;100.00;61774.03;5013792;28;20040;-68
2021/03/11 04:08:56;;;;;;;9.43;6.60;;;;;;;-139.48;100.00;61774.03;5013367;28;20060;-68
2021/03/11 04:11:45;;;;;;;15.48;7.80;;;;;;;-139.48;100.00;61774.03;5013852;28;20123;-67
2021/03/11 04:14:30;;;;;;;12.90;7.85;;;;;;;-139.48;100.00;61774.03;4999675;28;20441;-67
2021/03/11 04:17:15;;;;;;;11.32;6.40;;;;;;;-139.48;100.00;61774.03;5013647;28;20068;-67
2021/03/11 04:20:04;;;;;;;12.52;5.20;;;;;;;-139.48;100.00;61774.03;5013607;28;20502;-67
2021/03/11 04:22:49;;;;;;;12.98;7.00;;;;;;;-139.48;100.00;61774.03;5014671;28;20115;-67
2021/03/11 04:25:33;;;;;;;12.63;7.13;;;;;;;-139.48;100.00;61774.03;5014187;28;20052;-68
2021/03/11 04:28:17;;;;;;;8.23;4.20;;;;;;;-139.48;100.00;61774.03;4985726;28;20073;-68
2021/03/11 04:31:02;;;;;;;13.00;7.13;;;;;;;-139.48;100.00;61774.03;4999554;28;20044;-68
2021/03/11 04:33:46;;;;;;;14.00;7.80;;;;;;;-139.48;100.00;61774.03;5014576;28;20045;-68
2021/03/11 04:36:30;;;;;;;10.25;5.95;;;;;;;-139.48;100.00;61774.03;4999155;28;20127;-66
2021/03/11 04:39:16;;;;;;;11.65;5.60;;;;;;;-139.48;100.00;61774.03;5013086;28;20184;-67
2021/03/11 04:42:01;;;;;;;10.43;6.35;;;;;;;-139.48;100.00;61774.03;5013064;28;20045;-67
2021/03/11 04:44:46;;;;;;;11.85;6.10;;;;;;;-139.48;100.00;61774.03;5013000;28;20048;-67
2021/03/11 04:47:30;;;;;;;17.67;6.97;;;;;;;-139.48;100.00;61774.03;4998993;28;20096;-67
2021/03/11 04:50:15;;;;;;;11.05;7.00;;;;;;;-139.48;100.00;61774.03;5014106;28;20056;-67
2021/03/11 04:52:59;;;;;;;10.63;6.28;;;;;;;-139.48;100.00;61774.03;5013750;28;20053;-67
2021/03/11 04:55:43;;;;;;;14.27;7.00;;;;;;;-139.48;100.00;61774.03;4999228;28;20053;-67
2021/03/11 04:58:29;;;;;;;11.27;6.35;;;;;;;-139.48;100.00;61774.03;5013993;28;20057;-68
2021/03/11 05:01:18;;;;;;;8.65;4.57;;;;;;;-139.48;100.00;61774.03;5012696;28;20053;-67
2021/03/11 05:04:02;;;;;;;10.52;5.80;;;;;;;-139.48;100.00;61774.03;4998981;28;20049;-67
2021/03/11 05:06:46;;;;;;;8.90;4.53;;;;;;;-139.48;100.00;61774.03;5013825;28;20096;-67
2021/03/11 05:09:30;;;;;;;8.43;4.63;;;;;;;-139.48;100.00;61774.03;4998792;28;20112;-68
2021/03/11 05:12:14;;;;;;;9.05;4.82;;;;;;;-139.48;100.00;61774.03;4998601;28;20200;-68
2021/03/11 05:14:58;;;;;;;;;;;;;;;-139.48;100.00;61774.03;5014158;28;20407;-67
2021/03/11 05:17:42;;;;;;;9.03;4.13;;;;;;;-139.48;100.00;61774.03;4998605;28;19985;-67
2021/03/11 05:20:27;;;;;;;11.07;5.78;;;;;;;-139.48;100.00;61774.03;4998260;28;20112;-68
2021/03/11 05:23:11;;;;;;;8.35;4.57;;;;;;;-139.48;100.00;61774.03;4998806;28;20104;-68
2021/03/11 05:25:55;;;;;;;7.53;3.03;;;;;;;-139.48;100.00;61774.03;5012357;28;20533;-68
2021/03/11 05:28:39;;;;;;;9.80;5.30;;;;;;;-139.48;100.00;61774.03;5013334;28;20052;-68
2021/03/11 05:31:23;;;;;;;9.30;4.00;;;;;;;-139.48;100.00;61774.03;5013617;28;20103;-67
2021/03/11 05:34:08;;;;;;;6.90;3.47;;;;;;;-139.48;100.00;61774.03;5013515;28;20053;-68
2021/03/11 05:36:52;;;;;;;8.20;4.38;;;;;;;-139.48;100.00;61774.03;5013248;28;20044;-68
2021/03/11 05:39:38;;;;;;;7.50;3.17;;;;;;;-139.48;100.00;61774.03;5013499;28;20057;-67
2021/03/11 05:42:22;;;;;;;8.20;4.88;;;;;;;-139.48;100.00;61774.03;5013190;28;20462;-68
2021/03/11 05:45:07;;;;;;;7.95;4.75;;;;;;;-139.48;100.00;61774.03;4998555;28;20088;-67
2021/03/11 05:47:51;;;;;;;11.38;6.00;;;;;;;-139.48;100.00;61774.03;4998245;28;20072;-68
2021/03/11 05:50:36;;;;;;;8.50;5.13;;;;;;;-139.48;100.00;61774.03;5013330;28;20514;-67
2021/03/11 05:53:20;;;;;;;9.35;5.55;;;;;;;-139.48;100.00;61774.03;4998316;28;20080;-68
2021/03/11 05:56:06;;;;;;;7.60;4.80;;;;;;;-139.48;100.00;61774.03;5013013;28;20093;-68
2021/03/11 05:58:50;;;;;;;9.50;4.90;;;;;;;-139.48;100.00;61774.03;5013031;28;20490;-68
2021/03/11 06:01:34;;;;;;;;;;;;;;;-139.48;100.00;61774.03;5013474;28;20057;-67
2021/03/11 06:04:19;;;;;;;7.20;3.75;;;;;;;-139.48;100.00;61774.03;5013468;28;20389;-68
2021/03/11 06:07:05;;;;;;;6.68;3.85;;;;;;;-139.48;100.00;61774.03;5013257;28;20040;-67
2021/03/11 06:09:56;;;;;;;4.65;2.92;;;;;;;-139.48;100.00;61774.03;4998730;28;20576;-68
2021/03/11 06:12:41;;;;;;;5.97;3.08;;;;;;;-139.48;100.00;61774.03;5012340;28;20061;-68
2021/03/11 06:15:37;;;;;;;7.10;4.65;;;;;;;-139.48;100.00;61774.03;4998480;28;20100;-67
2021/03/11 06:18:22;;;;;;;5.43;3.35;;;;;;;-139.48;100.00;61774.03;5013200;28;20072;-67
2021/03/11 06:21:06;;;;;;;7.72;2.92;;;;;;;-139.48;100.00;61774.03;5013225;28;20418;-68
2021/03/11 06:23:50;;;;;;;6.13;3.10;;;;;;;-139.48;100.00;61774.03;4998539;28;20049;-68
2021/03/11 06:26:35;;;;;;;6.68;3.00;;;;;;;-139.48;100.00;61774.03;4998068;28;20095;-68
2021/03/11 06:29:22;;;;;;;4.22;2.30;;;;;;;-139.48;100.00;61774.03;4997895;28;20057;-68
2021/03/11 06:32:10;;;;;;;4.65;2.67;;;;;;;-139.48;100.00;61774.03;5014777;28;20111;-68
2021/03/11 06:34:55;;;;;;;7.60;3.83;;;;;;;-139.48;100.00;61774.03;5015684;28;20108;-68
2021/03/11 06:37:42;;;;;;;9.43;3.40;;;;;;;-139.48;100.00;61774.03;5001617;28;20048;-68
2021/03/11 06:40:28;;;;;;;5.53;2.55;;;;;;;-139.48;100.00;61774.03;5016336;28;20052;-68
2021/03/11 06:43:13;;;;;;;4.43;2.13;;;;;;;-139.48;100.00;61774.03;5001865;28;20053;-68
2021/03/11 06:46:10;;;;;;;5.70;2.90;;;;;;;-139.48;100.00;61774.03;5016343;28;20084;-68
2021/03/11 06:49:11;;;;;;;4.15;2.90;;;;;;;-139.48;100.00;61774.03;5016751;28;20103;-68
2021/03/11 06:52:15;;;;;;;6.40;2.60;;;;;;;-139.48;100.00;61774.03;5001557;28;20633;-68
2021/03/11 06:55:03;;;;;;;9.82;3.17;;;;;;;-139.48;100.00;61774.03;5016451;28;20125;-68
2021/03/11 06:57:47;;;;;;;5.32;2.70;;;;;;;-139.48;100.00;61774.03;5001385;28;20057;-68
2021/03/11 07:00:31;;;;;;;;;;;;;;;-139.48;100.00;61774.03;5016322;28;20048;-68
2021/03/11 07:03:15;;;;;;;4.07;2.27;;;;;;;-139.48;100.00;61774.03;5001128;28;19919;-68
2021/03/11 07:06:00;;;;;;;4.38;2.28;;;;;;;-139.48;100.00;61774.03;5016048;28;20088;-68
2021/03/11 07:08:50;;;;;;;4.82;2.38;;;;;;;-139.48;100.00;61774.03;5001001;28;20057;-68
2021/03/11 07:11:35;;;;;;;5.32;2.40;;;;;;;-139.48;100.00;61774.03;5014840;28;20099;-68
2021/03/11 07:14:26;;;;;;;;;;;;;;;-139.48;100.00;61774.03;5001343;28;20092;-68
2021/03/11 07:17:24;;;;;;;4.90;3.03;;;;;;;-139.48;100.00;61774.03;5000764;28;19983;-68
2021/03/11 07:20:16;;;;;;;2.53;1.45;;;;;;;-139.48;100.00;61774.03;5015175;28;20058;-68
2021/03/11 07:23:11;;;;;;;4.20;2.80;;;;;;;-139.48;100.00;61774.03;5014861;28;20461;-68
2021/03/11 07:25:55;;;;;;;5.05;2.92;;;;;;;-139.48;100.00;61774.03;5015479;28;20133;-68
2021/03/11 07:28:40;;;;;;;4.35;1.98;;;;;;;-139.48;100.00;61774.03;5000841;28;20061;-68
2021/03/11 07:31:27;;;;;;;3.40;2.55;;;;;;;-139.48;100.00;61774.03;5015699;28;20084;-68
2021/03/11 07:34:12;;;;;;;3.75;2.63;;;;;;;-139.48;100.00;61774.03;5014566;28;20419;-68
2021/03/11 07:36:58;;;;;;;4.63;2.60;;;;;;;-139.48;100.00;61774.03;5015192;28;20056;-68
2021/03/11 07:39:43;;;;;;;4.55;2.50;;;;;;;-139.48;100.00;61774.03;5014333;28;20048;-68
2021/03/11 07:42:27;;;;;;;3.67;2.30;;;;;;;-139.48;100.00;61774.03;5015299;28;20422;-68
2021/03/11 07:45:13;;;;;;;5.38;2.90;;;;;;;-139.48;100.00;61774.03;4986898;28;20084;-68
2021/03/11 07:47:57;;;;;;;4.70;2.35;;;;;;;-139.48;100.00;61774.03;5015156;28;20525;-68
2021/03/11 07:50:45;;;;;;;;;;;;;;;-139.48;100.00;61774.03;5015775;28;20084;-68
2021/03/11 07:53:29;;;;;;;4.60;2.58;;;;;;;-139.48;100.00;61774.03;5015411;28;19921;-68
2021/03/11 07:56:12;;;;;;;3.58;1.65;;;;;;;-139.48;100.00;61774.03;5015208;28;20049;-68
2021/03/11 07:59:02;;;;;;;;;;;;;;;-139.48;100.00;61774.03;5000758;28;20053;-68
2021/03/11 08:01:50;;;;;;;6.00;2.40;;;;;;;-139.48;100.00;61774.03;5000380;28;19924;-68
2021/03/11 08:04:40;;;;;;;5.72;2.55;;;;;;;-139.48;100.00;61774.03;5000075;28;20072;-68
2021/03/11 08:07:26;;;;;;;2.92;1.63;;;;;;;-139.48;100.00;61774.03;5014687;28;20084;-68
2021/03/11 08:10:19;;;;;;;3.53;1.90;;;;;;;-139.48;100.00;61774.03;5013658;28;20048;-68
2021/03/11 08:13:23;;;;;;;5.50;2.53;;;;;;;-139.48;100.00;61774.03;4999928;28;20041;-68
2021/03/11 08:16:14;;;;;;;4.57;2.72;;;;;;;-139.48;100.00;61774.03;5014499;28;20057;-68
2021/03/11 08:18:58;;;;;;;4.07;2.97;;;;;;;-139.48;100.00;61774.03;5014767;28;20517;-68
2021/03/11 08:21:43;;;;;;;10.55;2.90;;;;;;;-139.48;100.00;61774.03;5014999;28;20505;-67
2021/03/11 08:24:40;;;;;;;2.85;1.85;;;;;;;-139.48;100.00;61774.03;5013758;28;20049;-68
2021/03/11 08:27:30;;;;;;;3.63;2.25;;;;;;;-139.48;100.00;61774.03;5014252;28;20096;-68
2021/03/11 08:30:38;;;;;;;4.38;2.67;;;;;;;-139.48;100.00;61774.03;5014447;28;20048;-69
2021/03/11 08:33:21;;;;;;;5.95;1.95;;;;;;;-139.48;100.00;61774.03;5012968;28;20040;-69
2021/03/11 08:36:05;;;;;;;3.38;2.40;;;;;;;-139.48;100.00;61774.03;5014313;28;20064;-69
2021/03/11 08:38:50;;;;;;;2.47;1.95;;;;;;;-139.48;100.00;61774.03;4999978;28;20125;-69
2021/03/11 08:41:34;;;;;;;3.95;2.22;;;;;;;-139.48;100.00;61774.03;4999691;28;20530;-69
2021/03/11 08:44:42;;;;;;;5.57;2.35;;;;;;;-139.48;100.00;61774.03;5014382;28;20076;-69
2021/03/11 08:47:26;;;;;;;3.50;2.15;;;;;;;-139.48;100.00;61774.03;4999399;28;20103;-69
2021/03/11 08:50:34;;;;;;;2.13;1.80;;;;;;;-139.48;100.00;61774.03;4999446;28;20088;-69
2021/03/11 08:53:35;;;;;;;6.78;1.83;;;;;;;-139.48;100.00;61774.03;4999153;28;20060;-69
2021/03/11 08:56:20;;;;;;;2.65;1.92;;;;;;;-139.48;100.00;61774.03;5013240;28;20137;-69
2021/03/11 08:59:15;;;;;;;4.05;2.20;;;;;;;-139.48;100.00;61774.03;5013907;28;20048;-69
2021/03/11 09:01:58;;;;;;;;;;;;;;;-139.48;100.00;61774.03;4999303;28;20092;-69
2021/03/11 09:04:42;;;;;;;2.33;1.42;;;;;;;-139.48;100.00;61774.03;4998912;28;19920;-69
2021/03/11 09:07:29;;;;;;;4.15;1.83;;;;;;;-139.48;100.00;61774.03;5013939;28;20053;-69
2021/03/11 09:10:19;;;;;;;4.32;2.38;;;;;;;-139.48;100.00;61774.03;5012916;28;20056;-69
2021/03/11 09:13:02;;;;;;;4.28;2.10;;;;;;;-139.48;100.00;61774.03;5012644;28;20045;-69
2021/03/11 09:15:47;;;;;;;2.65;1.85;;;;;;;-139.48;100.00;61774.03;4998800;28;20516;-69
2021/03/11 09:18:32;;;;;;;5.35;1.90;;;;;;;-139.48;100.00;61774.03;5030945;23;20402;-63
2021/03/11 09:21:15;;;;;;;;;;;;;;;-139.48;100.00;61774.03;5027082;28;20096;-64
2021/03/11 09:24:00;;;;;;;3.15;1.95;;;;;;;-139.48;100.00;61774.03;5012860;28;19944;-64
2021/03/11 09:26:44;;;;;;;5.07;2.10;;;;;;;-139.48;100.00;61774.03;5013677;28;20490;-63
2021/03/11 09:29:28;;;;;;;3.72;2.30;;;;;;;-139.48;100.00;61774.03;4998911;28;20523;-64
2021/03/11 09:32:12;;;;;;;2.40;1.85;;;;;;;-139.48;100.00;61774.03;5013716;28;20049;-64
2021/03/11 09:35:08;;;;;;;4.32;1.80;;;;;;;-139.48;100.00;61774.03;5012648;28;20107;-64
2021/03/11 09:37:58;;;;;;;4.30;1.83;;;;;;;-139.48;100.00;61774.03;5013313;28;20096;-63
2021/03/11 09:40:43;;;;;;;1.88;1.50;;;;;;;-139.48;100.00;61774.03;5013287;28;20088;-64
2021/03/11 09:43:29;;;;;;;2.20;1.40;;;;;;;-139.48;100.00;61774.03;5013323;28;20096;-64
2021/03/11 09:46:15;;;;;;;5.35;1.90;;;;;;;-139.48;100.00;61774.03;5012188;28;20056;-63
2021/03/11 09:49:00;;;;;;;4.05;1.50;;;;;;;-139.48;100.00;61774.03;5013411;28;20139;-64
2021/03/11 09:51:44;;;;;;;1.27;1.17;;;;;;;-139.48;100.00;61774.03;5013487;28;20057;-64
2021/03/11 09:54:29;;;;;;;3.45;1.27;;;;;;;-139.48;100.00;61774.03;5013493;28;20134;-63
2021/03/11 09:57:13;;;;;;;7.95;1.95;;;;;;;-139.48;100.00;61774.03;5012187;28;20045;-64
2021/03/11 09:59:57;;;;;;;3.85;1.58;;;;;;;-139.48;100.00;61774.03;5012249;28;20049;-64
2021/03/11 10:02:50;;;;;;;;;;;;;;;-139.48;100.00;61774.03;5013901;28;20121;-64
2021/03/11 10:05:34;;;;;;;2.65;1.63;;;;;;;-139.48;100.00;61774.03;5012436;28;20310;-63
2021/03/11 10:08:39;;;;;;;4.82;1.70;;;;;;;-139.48;100.00;61774.03;5016164;28;20041;-62
2021/03/11 10:11:33;;;;;;;3.33;2.05;;;;;;;-139.48;100.00;61774.03;5017213;28;20044;-62
2021/03/11 10:14:18;;;;;;;;;;;;;;;-139.48;100.00;61774.03;5017604;28;20553;-62
2021/03/11 10:17:04;;;;;;;5.63;2.35;;;;;;;-139.48;100.00;61774.03;5015775;28;19993;-63
2021/03/11 10:19:49;;;;;;;2.83;1.40;;;;;;;-139.48;100.00;61774.03;5017109;28;20457;-62
2021/03/11 10:22:32;;;;;;;3.15;2.13;;;;;;;-139.48;100.00;61774.03;5017056;28;20103;-62
2021/03/11 10:25:19;;;;;;;4.55;1.48;;;;;;;-139.48;100.00;61774.03;5016976;28;20053;-64
2021/03/11 10:28:03;;;;;;;3.92;2.03;;;;;;;-139.48;100.00;61774.03;5016721;28;20099;-63
2021/03/11 10:30:53;;;;;;;4.75;2.28;;;;;;;-139.48;100.00;61774.03;5016117;28;20082;-63
2021/03/11 10:33:38;;;;;;;5.60;2.63;;;;;;;-139.48;100.00;61774.03;5016782;28;20115;-63
2021/03/11 10:36:23;;;;;;;2.53;1.50;;;;;;;-139.48;100.00;61774.03;5016722;28;20049;-63
2021/03/11 10:39:12;;;;;;;3.67;2.38;;;;;;;-139.48;100.00;61774.03;5016709;28;20049;-64
2021/03/11 10:42:04;;;;;;;4.65;2.38;;;;;;;-139.48;100.00;61774.03;5016450;28;20072;-63
2021/03/11 10:45:02;;;;;;;3.15;2.20;;;;;;;-139.48;100.00;61774.03;5015426;28;20053;-64
2021/03/11 10:47:59;;;;;;;5.38;2.00;;;;;;;-139.48;100.00;61774.03;5015230;28;20120;-63
2021/03/11 10:50:45;;;;;;;7.75;2.78;;;;;;;-139.48;100.00;61774.03;5016453;28;20057;-63
2021/03/11 10:53:37;;;;;;;2.95;2.03;;;;;;;-139.48;100.00;61774.03;5015232;28;20518;-63
2021/03/11 10:56:21;;;;;;;6.57;2.08;;;;;;;-139.48;100.00;61774.03;5015150;28;20095;-64
2021/03/11 10:59:07;;;;;;;3.30;2.15;;;;;;;-139.48;100.00;61774.03;5016089;28;20084;-64
2021/03/11 11:01:51;;;;;;;2.30;1.90;;;;;;;-139.48;100.00;61774.03;5015101;28;20083;-63
2021/03/11 11:04:35;;;;;;;4.93;2.38;;;;;;;-139.48;100.00;61774.03;5015017;28;20045;-64
2021/03/11 11:07:20;;;;;;;4.95;2.42;;;;;;;-139.48;100.00;61774.03;5015792;28;20133;-65
2021/03/11 11:10:05;;;;;;;6.00;3.00;;;;;;;-139.48;100.00;61774.03;5015889;28;20100;-65
2021/03/11 11:12:49;;;;;;;1.77;1.50;;;;;;;-139.48;100.00;61774.03;5015175;28;20056;-62
2021/03/11 11:15:34;;;;;;;9.18;3.10;;;;;;;-139.48;100.00;61774.03;5014830;28;20136;-64
2021/03/11 11:18:18;;;;;;;4.55;2.75;;;;;;;-139.48;100.00;61774.03;4999857;28;20049;-63
2021/03/11 11:21:02;;;;;;;2.88;1.50;;;;;;;-139.48;100.00;61774.03;5015017;28;20052;-64
2021/03/11 11:23:48;;;;;;;7.47;3.13;;;;;;;-139.48;100.00;61774.03;5014715;28;20405;-64
2021/03/11 11:26:32;;;;;;;10.73;3.05;;;;;;;-139.48;100.00;61774.03;5015922;28;20048;-64
2021/03/11 11:29:16;;;;;;;5.70;2.83;;;;;;;-139.48;100.00;61774.03;5015848;28;20463;-64
2021/03/11 11:32:00;;;;;;;4.45;1.80;;;;;;;-139.48;100.00;61774.03;5015777;28;20194;-63
2021/03/11 11:34:44;;;;;;;11.98;2.00;;;;;;;-139.48;100.00;61774.03;5014677;28;20108;-64
2021/03/11 11:37:28;;;;;;;5.70;3.13;;;;;;;-139.48;100.00;61774.03;5015279;28;20049;-65
2021/03/11 11:40:13;;;;;;;6.40;2.60;;;;;;;-139.48;100.00;61774.03;5014611;28;20131;-63
2021/03/11 11:42:58;;;;;;;5.60;2.10;;;;;;;-139.48;100.00;61774.03;5015495;28;20084;-64
2021/03/11 11:45:42;;;;;;;3.80;2.30;;;;;;;-139.48;100.00;61774.03;5015369;28;20125;-64
2021/03/11 11:48:26;;;;;;;6.78;2.83;;;;;;;-139.48;100.00;61774.03;5014409;28;20129;-64
2021/03/11 11:51:11;;;;;;;1.92;1.65;;;;;;;-139.48;100.00;61774.03;5015338;28;20517;-64
2021/03/11 11:53:55;;;;;;;1.95;1.55;;;;;;;-139.48;100.00;61774.03;5015331;28;20191;-64
2021/03/11 11:56:39;;;;;;;8.65;2.85;;;;;;;-139.48;100.00;61774.03;5015247;28;20049;-64
2021/03/11 11:59:23;;;;;;;4.13;3.25;;;;;;;-139.48;100.00;61774.03;5014095;28;20053;-64
2021/03/11 12:02:09;;;;;;;4.53;3.35;;;;;;;-139.48;100.00;61774.03;5014131;28;20044;-63
2021/03/11 12:04:54;;;;;;;4.05;2.70;;;;;;;-139.48;100.00;61774.03;5014805;28;20056;-64
2021/03/11 12:07:38;;;;;;;3.97;2.83;;;;;;;-139.48;100.00;61774.03;5013743;28;20104;-64
2021/03/11 12:10:23;;;;;;;3.70;2.75;;;;;;;-139.48;100.00;61774.03;5013757;28;20506;-63
2021/03/11 12:13:07;;;;;;;4.93;3.13;;;;;;;-139.48;100.00;61774.03;5014738;28;20049;-64
2021/03/11 12:15:52;;;;;;;4.05;3.38;;;;;;;-139.48;100.00;61774.03;5014565;28;20497;-64
2021/03/11 12:18:36;;;;;;;3.03;2.75;;;;;;;-139.48;100.00;61774.03;5014491;28;20133;-63
2021/03/11 12:21:21;;;;;;;3.28;2.70;;;;;;;-139.48;100.00;61774.03;5015117;28;20455;-64
2021/03/11 12:24:05;;;;;;;2.63;1.45;;;;;;;-139.48;100.00;61774.03;4999951;28;20474;-63
2021/03/11 12:26:49;;;;;;;6.97;1.60;;;;;;;-139.48;100.00;61774.03;5013700;28;20180;-64
2021/03/11 12:29:34;;;;;;;2.72;1.85;;;;;;;-139.48;100.00;61774.03;5014498;28;20049;-63
2021/03/11 12:32:18;;;;;;;1.90;1.75;;;;;;;-139.48;100.00;61774.03;5013629;28;20048;-63
2021/03/11 12:35:04;;;;;;;2.58;1.98;;;;;;;-139.48;100.00;61774.03;5014523;28;20506;-63